Time;durP1;ratioP1;P1;durP2;ratioP2;P2;SDS_P1;SDS_P2;PMS_P1;PMS_P2;Temp;Humidity;BMP_temperature;BMP_pressure;BME280_temperature;BME280_humidity;BME280_pressure;Samples;Min_cycle;Max_cycle;Signal;HPM_P1;HPM_P2
2023/05/29 00:00:13;;;;;;;5.17;2.80;;;18.60;57.50;;;;;;4959086;28;20629;-74
2023/05/29 00:02:44;;;;;;;3.10;1.80;;;18.50;58.80;;;;;;4992646;28;20195;-74
2023/05/29 00:05:11;;;;;;;3.60;1.97;;;18.50;58.10;;;;;;4992555;28;21046;-73
2023/05/29 00:07:37;;;;;;;5.50;2.03;;;18.40;58.00;;;;;;4994488;28;20650;-74
2023/05/29 00:10:07;;;;;;;4.50;2.10;;;18.40;58.20;;;;;;4982767;28;20582;-73
2023/05/29 00:12:33;;;;;;;5.27;2.10;;;18.30;58.50;;;;;;5030167;28;21194;-74
2023/05/29 00:14:59;;;;;;;5.93;2.87;;;18.30;58.90;;;;;;5031731;28;20564;-73
2023/05/29 00:17:25;;;;;;;5.70;2.57;;;18.30;59.20;;;;;;5014102;28;20584;-74
2023/05/29 00:19:51;;;;;;;6.87;2.77;;;18.20;59.10;;;;;;5031689;28;20624;-74
2023/05/29 00:22:17;;;;;;;4.57;1.90;;;18.20;59.20;;;;;;5031691;28;20965;-73
2023/05/29 00:24:43;;;;;;;2.73;1.77;;;18.20;59.40;;;;;;5031956;28;20332;-74
2023/05/29 00:27:09;;;;;;;3.57;1.77;;;18.10;59.60;;;;;;5013284;28;21020;-73
2023/05/29 00:29:37;;;;;;;5.80;2.40;;;18.10;60.90;;;;;;5031847;28;20177;-73
2023/05/29 00:32:06;;;;;;;3.50;1.97;;;18.00;60.20;;;;;;4961652;28;20748;-73
2023/05/29 00:34:32;;;;;;;3.80;2.17;;;18.00;60.70;;;;;;4992528;28;20621;-73
2023/05/29 00:36:58;;;;;;;5.53;2.33;;;18.00;60.80;;;;;;4977317;28;20943;-73
2023/05/29 00:39:24;;;;;;;4.10;1.77;;;17.90;61.20;;;;;;4994056;28;20217;-73
2023/05/29 00:41:50;;;;;;;4.13;1.80;;;17.80;61.60;;;;;;4993712;28;20605;-73
2023/05/29 00:44:20;;;;;;;3.53;1.70;;;17.80;61.70;;;;;;4978134;28;20209;-73
2023/05/29 00:46:50;;;;;;;3.87;1.93;;;17.80;62.20;;;;;;4993727;28;20601;-73
2023/05/29 00:49:17;;;;;;;2.77;1.50;;;17.70;62.70;;;;;;4993484;28;20600;-73
2023/05/29 00:51:44;;;;;;;2.60;2.00;;;17.70;63.00;;;;;;4993435;28;20696;-73
2023/05/29 00:54:14;;;;;;;5.47;2.67;;;17.70;63.90;;;;;;5011202;28;20573;-73
2023/05/29 00:56:43;;;;;;;3.40;1.47;;;17.60;63.90;;;;;;4993826;28;20577;-73
2023/05/29 00:59:10;;;;;;;4.90;2.57;;;17.60;64.20;;;;;;5011122;28;20578;-73
2023/05/29 01:01:36;;;;;;;3.93;1.63;;;17.50;64.50;;;;;;5011240;28;20699;-73
2023/05/29 01:04:06;;;;;;;2.63;1.63;;;17.50;64.90;;;;;;4975052;28;20606;-73
2023/05/29 01:06:32;;;;;;;3.47;2.07;;;17.50;65.50;;;;;;5009839;28;21255;-73
2023/05/29 01:08:58;;;;;;;3.70;1.63;;;17.40;66.00;;;;;;4981761;28;20628;-73
2023/05/29 01:11:33;;;;;;;2.60;1.63;;;17.40;66.30;;;;;;4982300;28;20597;-73
2023/05/29 01:14:09;;;;;;;5.00;2.40;;;17.30;67.80;;;;;;5003272;28;20584;-73
2023/05/29 01:16:44;;;;;;;3.90;1.73;;;17.30;67.60;;;;;;4980860;28;20611;-73
2023/05/29 01:19:35;;;;;;;6.27;2.27;;;17.30;68.00;;;;;;4987583;28;20608;-73
2023/05/29 01:22:08;;;;;;;2.87;1.50;;;17.20;68.50;;;;;;4993117;28;20614;-73
2023/05/29 01:24:52;;;;;;;5.50;2.47;;;17.20;70.10;;;;;;4975698;28;20602;-74
2023/05/29 01:27:21;;;;;;;3.73;2.03;;;17.10;71.20;;;;;;4959157;28;20617;-73
2023/05/29 01:29:51;;;;;;;4.23;2.47;;;17.10;69.60;;;;;;4991003;28;20592;-74
2023/05/29 01:32:39;;;;;;;2.90;1.57;;;17.00;71.20;;;;;;4975071;28;20647;-73
2023/05/29 01:35:05;;;;;;;4.10;2.30;;;17.00;71.20;;;;;;4977744;28;20605;-73
2023/05/29 01:37:31;;;;;;;4.00;2.30;;;16.90;70.90;;;;;;5011059;28;20588;-73
2023/05/29 01:39:57;;;;;;;4.80;2.37;;;16.90;71.70;;;;;;5014597;28;20621;-73
2023/05/29 01:42:26;;;;;;;4.23;2.30;;;16.90;72.20;;;;;;4993224;28;20190;-73
2023/05/29 01:44:52;;;;;;;3.37;2.03;;;16.80;72.80;;;;;;4977064;28;20589;-73
2023/05/29 01:47:18;;;;;;;3.73;1.67;;;16.80;73.30;;;;;;4993165;28;20632;-73
2023/05/29 01:49:44;;;;;;;3.33;1.63;;;16.70;73.30;;;;;;4993456;28;20586;-73
2023/05/29 01:52:10;;;;;;;6.20;2.00;;;16.70;74.20;;;;;;4992637;28;20611;-73
2023/05/29 01:54:36;;;;;;;5.10;1.63;;;16.60;74.30;;;;;;4977497;28;20577;-73
2023/05/29 01:57:05;;;;;;;3.90;1.93;;;16.60;74.60;;;;;;4993650;28;20584;-73
2023/05/29 01:59:33;;;;;;;4.03;1.70;;;16.60;74.70;;;;;;4976402;28;20640;-73
2023/05/29 02:02:08;;;;;;;2.60;1.50;;;16.50;75.80;;;;;;4978606;28;20625;-73
2023/05/29 02:04:34;;;;;;;5.27;2.30;;;16.50;76.50;;;;;;4996782;28;20589;-73
2023/05/29 02:07:00;;;;;;;2.00;1.10;;;16.50;76.50;;;;;;4997146;28;20616;-73
2023/05/29 02:09:26;;;;;;;4.80;1.70;;;16.40;76.20;;;;;;4996637;28;20577;-73
2023/05/29 02:11:52;;;;;;;3.00;1.57;;;16.30;76.50;;;;;;5014320;28;20197;-73
2023/05/29 02:14:18;;;;;;;3.58;1.90;;;16.30;77.40;;;;;;4996550;28;20186;-73
2023/05/29 02:16:44;;;;;;;2.33;1.77;;;16.30;77.60;;;;;;5015036;28;20170;-73
2023/05/29 02:19:10;;;;;;;4.50;1.70;;;16.20;78.30;;;;;;4996361;28;20182;-73
2023/05/29 02:21:39;;;;;;;4.50;1.53;;;16.20;78.10;;;;;;4979979;28;20696;-73
2023/05/29 02:24:05;;;;;;;4.23;1.70;;;16.10;78.30;;;;;;4996797;28;21164;-73
2023/05/29 02:26:31;;;;;;;4.37;1.87;;;16.10;78.90;;;;;;5014047;28;20632;-73
2023/05/29 02:28:57;;;;;;;2.53;1.57;;;16.00;79.30;;;;;;4980408;28;20639;-73
2023/05/29 02:31:23;;;;;;;3.70;1.87;;;16.00;79.40;;;;;;4979270;28;21125;-74
2023/05/29 02:33:49;;;;;;;4.13;1.60;;;16.00;79.60;;;;;;5013726;28;20264;-72
2023/05/29 02:36:16;;;;;;;5.28;1.83;;;15.90;80.80;;;;;;5004241;28;20916;-72
2023/05/29 02:38:41;;;;;;;3.43;1.63;;;15.90;80.30;;;;;;5016188;28;20188;-74
2023/05/29 02:41:07;;;;;;;4.97;1.80;;;15.80;80.60;;;;;;5015176;28;21266;-72
2023/05/29 02:43:33;;;;;;;3.37;1.70;;;15.80;81.80;;;;;;5014041;28;20171;-74
2023/05/29 02:45:59;;;;;;;5.47;2.10;;;15.70;82.30;;;;;;4979874;28;20277;-72
2023/05/29 02:48:25;;;;;;;5.00;1.90;;;15.70;81.80;;;;;;4979911;28;20572;-73
2023/05/29 02:50:52;;;;;;;3.95;1.77;;;15.60;82.70;;;;;;4995946;28;20651;-73
2023/05/29 02:53:18;;;;;;;4.30;1.97;;;15.60;82.60;;;;;;4996875;28;20658;-72
2023/05/29 02:55:44;;;;;;;3.72;2.13;;;15.60;83.20;;;;;;4980079;28;20581;-72
2023/05/29 02:58:11;;;;;;;3.10;1.95;;;15.50;83.20;;;;;;4995850;28;20174;-72
2023/05/29 03:00:37;;;;;;;2.90;1.92;;;15.50;83.60;;;;;;4979913;28;20213;-73
2023/05/29 03:03:03;;;;;;;4.85;1.73;;;15.50;83.70;;;;;;4995823;28;20198;-73
2023/05/29 03:05:29;;;;;;;3.30;1.55;;;15.40;85.40;;;;;;4996908;28;20257;-73
2023/05/29 03:07:55;;;;;;;3.60;2.20;;;15.30;84.50;;;;;;4980685;28;20174;-73
2023/05/29 03:10:21;;;;;;;3.23;1.93;;;15.40;85.30;;;;;;4982270;28;20179;-73
2023/05/29 03:12:48;;;;;;;6.88;2.40;;;15.30;85.40;;;;;;4996385;28;21027;-73
2023/05/29 03:15:14;;;;;;;4.95;2.20;;;15.30;85.90;;;;;;4995627;28;20548;-73
2023/05/29 03:17:40;;;;;;;7.50;2.65;;;15.20;86.50;;;;;;4995915;28;20183;-73
2023/05/29 03:20:11;;;;;;;3.45;2.20;;;15.20;86.80;;;;;;4995322;28;20206;-74
2023/05/29 03:22:37;;;;;;;6.68;1.95;;;15.20;87.30;;;;;;4962892;28;20271;-74
2023/05/29 03:25:03;;;;;;;2.80;1.57;;;15.10;87.40;;;;;;5012735;28;20179;-73
2023/05/29 03:27:30;;;;;;;4.45;2.10;;;15.10;88.70;;;;;;4995725;28;20273;-74
2023/05/29 03:30:04;;;;;;;2.75;1.85;;;15.00;88.60;;;;;;4979556;28;20182;-74
2023/05/29 03:32:31;;;;;;;4.07;2.38;;;15.00;89.10;;;;;;5022620;28;20205;-74
2023/05/29 03:34:58;;;;;;;3.20;1.88;;;15.00;89.60;;;;;;5004556;28;20237;-73
2023/05/29 03:37:23;;;;;;;4.53;1.90;;;15.00;89.80;;;;;;4979128;28;20178;-73
2023/05/29 03:39:50;;;;;;;5.53;1.92;;;14.90;90.30;;;;;;4978924;28;20830;-73
2023/05/29 03:42:18;;;;;;;3.72;1.85;;;14.90;90.30;;;;;;4978427;28;20201;-73
2023/05/29 03:44:43;;;;;;;5.18;1.67;;;14.90;90.60;;;;;;4995176;28;20182;-74
2023/05/29 03:47:10;;;;;;;5.20;2.17;;;14.80;90.60;;;;;;4978596;28;20178;-73
2023/05/29 03:49:38;;;;;;;6.25;1.85;;;14.80;91.20;;;;;;4995209;28;20228;-73
2023/05/29 03:52:04;;;;;;;4.90;1.60;;;14.80;91.30;;;;;;4977997;28;20198;-73
2023/05/29 03:54:30;;;;;;;4.53;1.90;;;14.80;91.40;;;;;;4995390;28;20525;-73
2023/05/29 03:56:56;;;;;;;7.30;1.63;;;14.80;91.50;;;;;;4978471;28;20178;-74
2023/05/29 03:59:24;;;;;;;6.03;2.15;;;14.80;91.70;;;;;;4978676;28;20182;-74
2023/05/29 04:01:50;;;;;;;7.83;2.37;;;14.70;92.20;;;;;;4994415;28;20190;-74
2023/05/29 04:04:16;;;;;;;4.10;1.83;;;14.80;92.10;;;;;;4995113;28;20631;-73
2023/05/29 04:06:42;;;;;;;3.80;1.80;;;14.70;92.60;;;;;;4979257;28;20237;-74
2023/05/29 04:09:08;;;;;;;8.10;2.40;;;14.70;92.30;;;;;;4994617;28;20174;-74
2023/05/29 04:11:34;;;;;;;7.32;2.28;;;14.70;92.40;;;;;;4994298;28;20285;-74
2023/05/29 04:14:00;;;;;;;6.87;1.97;;;14.70;92.70;;;;;;4994315;28;20269;-73
2023/05/29 04:16:30;;;;;;;5.90;1.85;;;14.70;92.80;;;;;;4978565;28;20174;-73
2023/05/29 04:18:56;;;;;;;4.57;1.80;;;14.70;93.00;;;;;;4978145;28;20176;-72
2023/05/29 04:21:25;;;;;;;8.63;2.30;;;14.80;93.10;;;;;;4977793;28;20218;-73
2023/05/29 04:23:52;;;;;;;4.72;2.08;;;14.80;93.50;;;;;;4977769;28;20186;-73
2023/05/29 04:26:20;;;;;;;7.00;1.90;;;14.80;93.70;;;;;;4994400;28;20190;-73
2023/05/29 04:28:46;;;;;;;3.78;1.65;;;14.90;94.00;;;;;;5002227;28;20580;-73
2023/05/29 04:31:14;;;;;;;7.77;2.60;;;15.10;94.50;;;;;;4992906;28;20173;-73
2023/05/29 04:33:41;;;;;;;4.53;2.40;;;15.30;94.90;;;;;;5014184;28;20528;-73
2023/05/29 04:36:08;;;;;;;7.82;2.40;;;15.50;94.90;;;;;;4990781;28;20613;-73
2023/05/29 04:38:36;;;;;;;4.73;1.63;;;15.60;94.70;;;;;;4975065;28;20209;-72
2023/05/29 04:41:02;;;;;;;3.03;2.00;;;15.70;94.50;;;;;;4990629;28;21165;-73
2023/05/29 04:43:28;;;;;;;6.40;1.70;;;15.80;94.40;;;;;;4994941;28;20608;-73
2023/05/29 04:46:02;;;;;;;8.20;2.07;;;15.90;94.70;;;;;;4994295;28;20595;-74
2023/05/29 04:48:29;;;;;;;8.20;2.10;;;16.10;94.90;;;;;;4994290;28;20940;-74
2023/05/29 04:50:54;;;;;;;4.77;1.77;;;16.30;95.00;;;;;;4977003;28;20605;-73
2023/05/29 04:53:20;;;;;;;8.57;2.30;;;16.50;95.10;;;;;;4994000;28;20633;-73
2023/05/29 04:55:46;;;;;;;5.07;1.80;;;16.70;95.10;;;;;;4993877;28;20220;-73
2023/05/29 04:58:12;;;;;;;5.47;1.90;;;16.80;94.70;;;;;;4993893;28;20634;-73
2023/05/29 05:00:39;;;;;;;4.43;1.37;;;16.90;94.40;;;;;;4994109;28;20640;-73
2023/05/29 05:03:05;;;;;;;7.77;2.40;;;17.00;94.30;;;;;;4993042;28;20601;-73
2023/05/29 05:05:33;;;;;;;6.40;2.53;;;17.20;94.40;;;;;;5011446;28;20178;-73
2023/05/29 05:08:00;;;;;;;8.83;2.67;;;17.40;94.30;;;;;;4977373;28;20589;-73
2023/05/29 05:10:27;;;;;;;3.47;2.17;;;17.60;94.40;;;;;;4994141;28;20668;-73
2023/05/29 05:12:54;;;;;;;8.03;2.17;;;17.80;94.50;;;;;;4976550;28;21204;-74
2023/05/29 05:15:21;;;;;;;6.67;2.60;;;18.00;94.20;;;;;;4993888;28;20573;-73
2023/05/29 05:17:47;;;;;;;5.20;2.37;;;18.20;93.90;;;;;;4977246;28;20603;-73
2023/05/29 05:20:13;;;;;;;6.67;2.30;;;18.30;93.30;;;;;;4977502;28;20639;-74
2023/05/29 05:22:40;;;;;;;6.50;2.40;;;18.30;93.10;;;;;;4976917;28;20695;-73
2023/05/29 05:25:06;;;;;;;5.80;2.33;;;18.40;93.00;;;;;;5001385;28;20675;-73
2023/05/29 05:27:33;;;;;;;4.77;1.77;;;18.40;92.60;;;;;;5012411;28;20654;-74
2023/05/29 05:30:00;;;;;;;7.50;2.60;;;18.40;92.50;;;;;;4996286;28;20584;-73
2023/05/29 05:32:26;;;;;;;6.50;2.00;;;18.40;92.30;;;;;;4996419;28;21188;-74
2023/05/29 05:35:00;;;;;;;7.10;2.37;;;18.30;92.10;;;;;;4986027;28;20604;-73
2023/05/29 05:37:27;;;;;;;4.93;2.03;;;18.30;92.00;;;;;;5014053;28;20694;-73
2023/05/29 05:39:54;;;;;;;6.30;2.40;;;18.20;91.80;;;;;;4997077;28;20633;-73
2023/05/29 05:42:20;;;;;;;8.03;2.97;;;18.20;91.90;;;;;;4997393;28;21506;-73
2023/05/29 05:44:51;;;;;;;6.23;1.53;;;18.10;91.90;;;;;;4992976;28;20663;-73
2023/05/29 05:47:17;;;;;;;6.17;2.00;;;18.10;92.20;;;;;;5017018;28;20672;-73
2023/05/29 05:49:43;;;;;;;5.77;2.20;;;18.40;92.80;;;;;;5000642;28;20246;-74
2023/05/29 05:52:09;;;;;;;6.33;1.80;;;18.80;93.40;;;;;;5016593;28;20204;-73
2023/05/29 05:54:35;;;;;;;8.00;2.57;;;19.50;94.30;;;;;;5017075;28;20679;-74
2023/05/29 05:57:02;;;;;;;4.93;1.83;;;20.30;94.80;;;;;;5016507;28;20182;-74
2023/05/29 05:59:29;;;;;;;4.57;1.77;;;21.10;94.70;;;;;;5017071;28;20585;-74
2023/05/29 06:01:55;;;;;;;9.80;2.00;;;21.90;94.00;;;;;;5015793;28;20670;-74
2023/05/29 06:04:20;;;;;;;6.60;2.17;;;22.80;92.80;;;;;;5034598;28;20201;-73
2023/05/29 06:06:46;;;;;;;6.73;2.40;;;23.60;92.40;;;;;;5000082;28;20568;-74
2023/05/29 06:09:13;;;;;;;3.53;1.60;;;24.40;91.80;;;;;;4984279;28;21149;-73
2023/05/29 06:11:39;;;;;;;4.43;1.50;;;25.20;90.80;;;;;;5015928;28;20635;-74
2023/05/29 06:14:06;;;;;;;6.37;2.07;;;26.00;90.00;;;;;;5016458;28;20634;-74
2023/05/29 06:16:31;;;;;;;3.50;1.53;;;26.80;87.50;;;;;;5034515;28;20649;-75
2023/05/29 06:18:57;;;;;;;3.50;1.47;;;27.50;84.60;;;;;;5014143;28;20612;-74
2023/05/29 06:21:24;;;;;;;6.43;1.80;;;28.10;80.70;;;;;;5005307;28;20214;-74
2023/05/29 06:23:54;;;;;;;6.57;2.30;;;28.60;78.20;;;;;;4999532;28;20679;-74
2023/05/29 06:26:21;;;;;;;3.70;1.37;;;29.00;75.90;;;;;;5016358;28;20744;-74
2023/05/29 06:28:48;;;;;;;3.33;1.37;;;29.50;74.50;;;;;;4999795;28;20576;-74
2023/05/29 06:31:14;;;;;;;6.00;2.07;;;29.90;71.90;;;;;;5015425;28;20576;-75
2023/05/29 06:33:40;;;;;;;4.63;1.53;;;30.40;69.80;;;;;;4999488;28;20173;-74
2023/05/29 06:36:06;;;;;;;6.47;2.47;;;30.70;68.00;;;;;;4997318;28;21367;-76
2023/05/29 06:38:33;;;;;;;4.47;1.50;;;31.20;67.80;;;;;;4979842;28;20178;-75
2023/05/29 06:41:00;;;;;;;6.07;1.53;;;31.60;64.80;;;;;;4993069;28;20676;-76
2023/05/29 06:43:27;;;;;;;4.30;1.87;;;31.90;62.10;;;;;;4976747;28;20598;-75
2023/05/29 06:45:56;;;;;;;4.17;1.67;;;32.20;60.20;;;;;;4994134;28;20191;-75
2023/05/29 06:48:22;;;;;;;4.70;1.63;;;32.40;59.10;;;;;;4975965;28;20566;-76
2023/05/29 06:50:48;;;;;;;4.03;1.90;;;32.70;57.90;;;;;;4976356;28;20230;-75
2023/05/29 06:53:39;;;;;;;3.30;1.20;;;33.00;56.10;;;;;;4994817;28;20701;-76
2023/05/29 06:56:07;;;;;;;6.50;2.20;;;33.20;55.60;;;;;;4976331;28;20677;-73
2023/05/29 06:58:33;;;;;;;4.73;1.50;;;33.40;53.90;;;;;;4976834;28;20686;-74
2023/05/29 07:01:00;;;;;;;5.13;2.23;;;33.50;53.30;;;;;;4976026;28;20631;-74
2023/05/29 07:03:35;;;;;;;6.00;2.30;;;33.70;52.20;;;;;;4979864;28;20589;-74
2023/05/29 07:06:03;;;;;;;3.70;1.87;;;33.80;51.10;;;;;;4975606;28;20592;-74
2023/05/29 07:08:29;;;;;;;5.40;2.20;;;33.90;50.70;;;;;;4960720;28;20597;-74
2023/05/29 07:10:55;;;;;;;4.87;1.77;;;34.10;50.00;;;;;;4974952;28;21142;-74
2023/05/29 07:13:21;;;;;;;5.50;1.90;;;34.30;49.70;;;;;;4976691;28;20208;-73
2023/05/29 07:15:48;;;;;;;6.07;2.17;;;34.50;48.60;;;;;;4970446;28;21173;-74
2023/05/29 07:18:14;;;;;;;5.43;1.73;;;34.60;48.40;;;;;;5006985;28;20184;-74
2023/05/29 07:20:41;;;;;;;5.10;1.33;;;34.80;48.30;;;;;;5016050;28;20984;-73
2023/05/29 07:23:08;;;;;;;5.90;1.60;;;35.00;47.90;;;;;;5014409;28;20647;-74
2023/05/29 07:25:33;;;;;;;4.63;2.03;;;35.20;47.80;;;;;;5015382;28;20579;-73
2023/05/29 07:27:59;;;;;;;4.83;1.80;;;35.50;46.70;;;;;;5015008;28;20166;-73
2023/05/29 07:30:25;;;;;;;6.80;1.70;;;35.60;45.20;;;;;;5015001;28;20230;-74
2023/05/29 07:32:52;;;;;;;5.47;2.10;;;35.70;45.80;;;;;;5013788;28;20201;-73
2023/05/29 07:35:18;;;;;;;4.73;1.80;;;35.70;44.30;;;;;;5002183;28;20586;-72
2023/05/29 07:37:44;;;;;;;4.57;2.03;;;35.70;43.90;;;;;;4995633;28;20772;-72
2023/05/29 07:40:13;;;;;;;5.40;1.40;;;35.80;43.40;;;;;;4993934;28;20577;-73
2023/05/29 07:42:57;;;;;;;6.60;1.70;;;35.90;43.40;;;;;;5012724;28;20611;-74
2023/05/29 07:45:27;;;;;;;7.20;1.77;;;36.00;43.00;;;;;;4994522;28;20624;-73
2023/05/29 07:47:53;;;;;;;7.43;1.30;;;36.10;42.90;;;;;;4996796;28;20963;-74
2023/05/29 07:50:19;;;;;;;4.23;1.57;;;36.20;42.40;;;;;;4994430;28;20601;-75
2023/05/29 07:52:45;;;;;;;7.13;2.40;;;36.20;41.70;;;;;;4978160;28;21083;-74
2023/05/29 07:55:11;;;;;;;6.17;2.40;;;36.20;41.50;;;;;;4977167;28;20680;-75
2023/05/29 07:57:42;;;;;;;4.00;1.83;;;36.30;41.90;;;;;;4976541;28;20183;-74
2023/05/29 08:00:09;;;;;;;2.87;1.20;;;36.40;41.40;;;;;;4974314;28;20629;-74
2023/05/29 08:02:45;;;;;;;5.53;2.17;;;36.50;41.60;;;;;;4975129;28;20622;-75
2023/05/29 08:05:37;;;;;;;4.90;1.63;;;36.70;41.30;;;;;;4983884;28;20725;-74
2023/05/29 08:08:08;;;;;;;3.50;1.33;;;36.90;41.10;;;;;;4975393;28;20618;-74
2023/05/29 08:10:35;;;;;;;6.13;1.80;;;37.10;40.30;;;;;;4974418;28;20582;-74
2023/05/29 08:13:02;;;;;;;4.00;1.43;;;37.10;40.30;;;;;;4979091;28;20638;-74
2023/05/29 08:15:31;;;;;;;4.57;1.40;;;37.30;40.30;;;;;;5006134;28;20588;-74
2023/05/29 08:17:56;;;;;;;5.03;1.83;;;37.40;39.80;;;;;;4997229;28;20982;-74
2023/05/29 08:20:22;;;;;;;4.90;1.93;;;37.40;39.10;;;;;;5014206;28;20628;-74
2023/05/29 08:22:48;;;;;;;3.90;1.30;;;37.40;38.80;;;;;;5013016;28;20619;-74
2023/05/29 08:25:14;;;;;;;2.80;1.20;;;37.40;38.80;;;;;;5014957;28;20172;-74
2023/05/29 08:27:39;;;;;;;4.30;1.40;;;37.60;38.70;;;;;;5030995;28;20208;-74
2023/05/29 08:30:06;;;;;;;3.37;1.40;;;37.60;38.70;;;;;;5031875;28;20235;-74
2023/05/29 08:32:31;;;;;;;8.20;2.37;;;37.70;38.30;;;;;;5006593;28;20213;-74
2023/05/29 08:34:57;;;;;;;3.57;1.60;;;37.80;38.10;;;;;;5001960;28;20581;-74
2023/05/29 08:37:23;;;;;;;5.53;1.70;;;37.80;37.40;;;;;;5001048;28;20240;-74
2023/05/29 08:39:49;;;;;;;3.20;1.63;;;37.70;37.10;;;;;;5011560;28;20202;-74
2023/05/29 08:42:23;;;;;;;5.20;1.30;;;37.60;36.90;;;;;;5011235;28;20605;-74
2023/05/29 08:44:54;;;;;;;3.60;1.30;;;37.50;36.70;;;;;;5011532;28;20174;-74
2023/05/29 08:47:21;;;;;;;5.80;1.80;;;37.40;38.00;;;;;;4994286;28;21222;-73
2023/05/29 08:49:53;;;;;;;3.93;1.77;;;37.40;37.30;;;;;;5011272;28;20585;-73
2023/05/29 08:52:21;;;;;;;4.33;1.83;;;37.50;37.00;;;;;;4993747;28;21223;-73
2023/05/29 08:54:47;;;;;;;5.23;1.63;;;37.40;36.70;;;;;;4993530;28;20976;-73
2023/05/29 08:57:13;;;;;;;2.93;1.20;;;37.30;36.50;;;;;;5011752;28;20648;-73
2023/05/29 08:59:43;;;;;;;4.77;1.50;;;37.30;36.30;;;;;;4993660;28;20186;-74
2023/05/29 09:02:11;;;;;;;5.63;1.60;;;37.10;36.00;;;;;;4993817;28;20190;-73
2023/05/29 09:04:37;;;;;;;4.40;1.77;;;37.10;36.00;;;;;;5011097;28;20573;-73
2023/05/29 09:07:03;;;;;;;4.40;1.70;;;37.10;36.30;;;;;;4993790;28;21058;-73
2023/05/29 09:09:31;;;;;;;5.00;1.63;;;37.20;36.30;;;;;;5001662;28;20613;-73
2023/05/29 09:11:58;;;;;;;4.13;1.53;;;37.20;36.00;;;;;;4989877;28;20635;-73
2023/05/29 09:14:53;;;;;;;7.20;2.13;;;37.10;35.50;;;;;;5013470;28;20577;-73
2023/05/29 09:17:19;;;;;;;5.13;1.63;;;37.10;35.60;;;;;;4967431;28;20637;-73
2023/05/29 09:19:45;;;;;;;5.53;1.83;;;36.90;35.40;;;;;;4984982;28;20640;-73
2023/05/29 09:22:15;;;;;;;5.77;2.20;;;36.80;35.50;;;;;;4992606;28;20678;-73
2023/05/29 09:24:43;;;;;;;3.97;1.73;;;36.80;35.40;;;;;;5010558;28;20206;-73
2023/05/29 09:27:11;;;;;;;8.10;2.43;;;36.70;35.70;;;;;;4993036;28;20616;-73
2023/05/29 09:29:41;;;;;;;4.13;1.83;;;36.60;35.60;;;;;;5011349;28;20573;-73
2023/05/29 09:32:17;;;;;;;5.60;1.73;;;36.60;35.70;;;;;;4992263;28;20648;-73
2023/05/29 09:34:44;;;;;;;6.00;1.67;;;36.60;35.30;;;;;;5003042;28;20597;-73
2023/05/29 09:37:11;;;;;;;5.23;1.53;;;36.50;35.40;;;;;;4991446;28;20594;-73
2023/05/29 09:39:48;;;;;;;6.07;1.70;;;36.50;35.70;;;;;;4980326;28;20596;-72
2023/05/29 09:42:15;;;;;;;6.23;1.73;;;36.30;35.60;;;;;;4993313;28;21000;-73
2023/05/29 09:44:42;;;;;;;4.13;1.50;;;36.20;35.30;;;;;;5010334;28;20928;-73
2023/05/29 09:47:08;;;;;;;4.90;1.63;;;36.10;35.40;;;;;;4994728;28;20593;-73
2023/05/29 09:49:34;;;;;;;6.33;1.77;;;36.00;35.60;;;;;;4993295;28;20688;-73
2023/05/29 09:52:00;;;;;;;5.03;1.90;;;35.80;35.40;;;;;;5010977;28;20612;-73
2023/05/29 09:54:30;;;;;;;4.33;1.70;;;35.70;35.50;;;;;;4993439;28;20679;-73
2023/05/29 09:56:58;;;;;;;6.97;2.17;;;35.50;35.70;;;;;;4993784;28;20580;-74
2023/05/29 09:59:24;;;;;;;3.97;1.57;;;35.40;35.70;;;;;;5010635;28;20583;-73
2023/05/29 10:02:01;;;;;;;4.90;1.60;;;35.40;35.90;;;;;;4976915;28;20616;-73
2023/05/29 10:04:27;;;;;;;5.23;1.93;;;35.40;35.80;;;;;;4994471;28;20607;-73
2023/05/29 10:06:56;;;;;;;4.43;1.53;;;35.20;35.60;;;;;;5022649;28;20583;-73
2023/05/29 10:09:25;;;;;;;5.20;1.90;;;35.00;35.50;;;;;;4996549;28;20176;-73
2023/05/29 10:11:55;;;;;;;5.80;1.37;;;34.80;35.50;;;;;;5012566;28;20606;-73
2023/05/29 10:14:23;;;;;;;4.43;1.80;;;34.70;35.90;;;;;;5030815;28;20583;-73
2023/05/29 10:16:50;;;;;;;5.00;1.60;;;34.60;35.90;;;;;;5030854;28;20583;-73
2023/05/29 10:19:29;;;;;;;4.77;1.60;;;34.50;36.10;;;;;;5031166;28;20602;-73
2023/05/29 10:21:56;;;;;;;5.00;1.90;;;34.60;36.50;;;;;;5030576;28;21065;-73
2023/05/29 10:24:22;;;;;;;4.70;2.10;;;34.60;36.50;;;;;;5035999;28;20566;-73
2023/05/29 10:26:52;;;;;;;6.97;2.17;;;34.60;36.30;;;;;;5034750;28;20574;-73
2023/05/29 10:29:30;;;;;;;7.00;2.07;;;34.60;36.40;;;;;;5017232;28;20582;-73
2023/05/29 10:31:58;;;;;;;3.70;1.83;;;34.60;36.20;;;;;;5015348;28;20618;-73
2023/05/29 10:34:46;;;;;;;5.40;1.63;;;34.50;36.30;;;;;;5034307;28;20796;-73
2023/05/29 10:37:33;;;;;;;4.93;1.90;;;34.50;36.40;;;;;;5015709;28;20581;-73
2023/05/29 10:40:14;;;;;;;5.77;1.90;;;34.40;36.70;;;;;;4988290;28;20725;-73
2023/05/29 10:42:44;;;;;;;4.17;1.80;;;34.40;36.90;;;;;;4993686;28;20611;-73
2023/05/29 10:45:13;;;;;;;5.67;2.00;;;34.50;36.90;;;;;;4994199;28;20583;-73
2023/05/29 10:47:39;;;;;;;6.97;1.53;;;34.40;36.50;;;;;;4976263;28;20584;-73
2023/05/29 10:50:05;;;;;;;4.60;1.80;;;34.30;36.50;;;;;;4976813;28;20595;-73
2023/05/29 10:52:32;;;;;;;5.10;1.80;;;34.10;36.40;;;;;;4976161;28;20205;-73
2023/05/29 10:54:58;;;;;;;5.57;2.10;;;33.90;36.60;;;;;;4978165;28;20692;-73
2023/05/29 10:57:26;;;;;;;3.70;1.67;;;33.70;36.80;;;;;;4994211;28;21177;-73
2023/05/29 11:00:20;;;;;;;5.77;1.93;;;33.50;36.90;;;;;;4975910;28;21033;-73
2023/05/29 11:02:46;;;;;;;5.77;2.03;;;33.30;36.90;;;;;;4984047;28;20631;-73
2023/05/29 11:05:24;;;;;;;4.67;1.97;;;33.10;37.20;;;;;;4999798;28;20606;-73
2023/05/29 11:07:53;;;;;;;6.53;2.20;;;33.00;37.60;;;;;;5000708;28;20637;-73
2023/05/29 11:10:43;;;;;;;4.80;2.27;;;32.80;37.40;;;;;;5024389;28;20612;-73
2023/05/29 11:13:09;;;;;;;4.27;1.57;;;32.60;37.40;;;;;;5015167;28;20666;-73
2023/05/29 11:15:37;;;;;;;5.13;2.23;;;32.60;37.60;;;;;;5032908;28;20940;-73
2023/05/29 11:18:07;;;;;;;3.80;1.87;;;32.40;37.60;;;;;;5015485;28;20588;-73
2023/05/29 11:20:33;;;;;;;6.80;2.13;;;32.20;37.80;;;;;;5032581;28;20655;-73
2023/05/29 11:22:58;;;;;;;6.53;2.30;;;32.00;37.80;;;;;;5015002;28;20703;-73
2023/05/29 11:25:25;;;;;;;10.63;1.93;;;31.90;38.00;;;;;;4998688;28;20665;-73
2023/05/29 11:27:53;;;;;;;9.47;2.33;;;31.80;38.30;;;;;;5032993;28;20161;-73
2023/05/29 11:30:20;;;;;;;3.90;1.80;;;31.70;38.70;;;;;;5015108;28;20683;-74
2023/05/29 11:32:46;;;;;;;3.80;1.97;;;31.70;38.80;;;;;;5014604;28;20632;-73
2023/05/29 11:35:13;;;;;;;6.07;1.87;;;31.80;38.90;;;;;;4999220;28;20640;-72
2023/05/29 11:37:44;;;;;;;4.80;1.70;;;31.80;38.90;;;;;;4975664;28;20590;-73
2023/05/29 11:40:10;;;;;;;6.97;2.70;;;31.70;38.90;;;;;;5001853;28;20641;-73
2023/05/29 11:42:43;;;;;;;4.97;1.93;;;31.70;39.00;;;;;;4994619;28;21181;-73
2023/05/29 11:45:16;;;;;;;4.83;2.03;;;31.60;39.40;;;;;;4999519;28;20605;-73
2023/05/29 11:47:59;;;;;;;5.97;1.80;;;31.60;39.30;;;;;;5012808;28;20573;-73
2023/05/29 11:50:27;;;;;;;4.10;1.40;;;31.50;39.10;;;;;;4972756;28;20692;-73
2023/05/29 11:52:53;;;;;;;6.10;1.90;;;31.60;39.30;;;;;;4990595;28;20659;-80
2023/05/29 11:55:20;;;;;;;5.70;1.83;;;31.60;39.40;;;;;;5043098;28;20644;-79
2023/05/29 11:57:47;;;;;;;4.33;1.60;;;31.50;39.40;;;;;;5038943;28;20620;-79
2023/05/29 12:00:14;;;;;;;5.40;1.97;;;31.40;39.50;;;;;;5040429;28;20643;-79
2023/05/29 12:02:42;;;;;;;4.93;1.63;;;31.30;39.40;;;;;;5012712;28;20609;-80
2023/05/29 12:05:09;;;;;;;4.30;2.20;;;31.20;39.40;;;;;;5026156;28;20578;-79
2023/05/29 12:07:36;;;;;;;7.23;1.73;;;31.10;39.60;;;;;;5004270;28;20681;-81
2023/05/29 12:10:16;;;;;;;7.90;1.93;;;30.90;39.60;;;;;;5010371;28;20977;-80
2023/05/29 12:12:46;;;;;;;4.50;2.03;;;30.80;40.00;;;;;;5012811;28;20636;-80
2023/05/29 12:15:13;;;;;;;5.20;2.03;;;30.80;39.90;;;;;;5026853;28;20592;-80
2023/05/29 12:17:41;;;;;;;5.07;1.47;;;30.70;39.70;;;;;;5011984;28;20589;-80
2023/05/29 12:20:09;;;;;;;4.27;2.07;;;30.60;40.00;;;;;;5031568;28;20637;-80
2023/05/29 12:22:36;;;;;;;7.93;2.70;;;30.50;40.00;;;;;;5012636;28;20616;-80
2023/05/29 12:25:16;;;;;;;3.80;2.03;;;30.50;40.00;;;;;;5031344;28;20628;-79
2023/05/29 12:27:46;;;;;;;11.03;2.03;;;30.30;40.10;;;;;;5013502;28;21181;-81
2023/05/29 12:30:19;;;;;;;7.03;2.27;;;30.10;40.10;;;;;;5012345;28;20592;-80
2023/05/29 12:32:47;;;;;;;3.53;1.33;;;29.90;40.40;;;;;;5031710;28;20633;-80
2023/05/29 12:35:18;;;;;;;4.90;2.10;;;29.80;40.40;;;;;;5012773;28;20589;-80
2023/05/29 12:37:46;;;;;;;4.83;1.60;;;29.60;40.60;;;;;;5029413;28;20998;-80
2023/05/29 12:40:23;;;;;;;8.73;2.13;;;29.50;40.60;;;;;;5032457;28;20625;-80
2023/05/29 12:42:53;;;;;;;5.20;1.57;;;29.30;40.70;;;;;;4997762;28;20636;-80
2023/05/29 12:45:18;;;;;;;5.40;1.90;;;29.20;40.60;;;;;;5013206;28;20585;-80
2023/05/29 12:47:46;;;;;;;4.73;1.83;;;29.00;40.60;;;;;;5015116;28;20594;-79
2023/05/29 12:50:27;;;;;;;5.30;1.53;;;28.80;40.60;;;;;;5012117;28;20174;-80
2023/05/29 12:52:57;;;;;;;5.03;1.47;;;28.60;41.20;;;;;;5031227;28;20716;-80